createdAt,value
2023-02-27T00:01:39.342Z,-1.90
2023-02-27T00:04:41.143Z,-1.92
2023-02-27T00:07:43.337Z,-1.93
2023-02-27T00:10:44.880Z,-1.93
2023-02-27T00:13:46.584Z,-1.91
2023-02-27T00:16:48.309Z,-1.89
2023-02-27T00:19:49.919Z,-1.86
2023-02-27T00:22:51.646Z,-1.83
2023-02-27T00:25:53.413Z,-1.81
2023-02-27T00:28:55.181Z,-1.80
2023-02-27T00:31:56.864Z,-1.79
2023-02-27T00:34:58.813Z,-1.75
2023-02-27T00:38:00.572Z,-1.75
2023-02-27T00:41:02.268Z,-1.72
2023-02-27T00:44:04.031Z,-1.68
2023-02-27T00:47:05.822Z,-1.64
2023-02-27T00:50:07.503Z,-1.61
2023-02-27T00:53:09.070Z,-1.58
2023-02-27T00:56:10.732Z,-1.55
2023-02-27T00:59:12.446Z,-1.52
2023-02-27T01:02:14.117Z,-1.50
2023-02-27T01:05:16.045Z,-1.49
2023-02-27T01:08:18.002Z,-1.49
2023-02-27T01:11:19.657Z,-1.47
2023-02-27T01:14:21.370Z,-1.46
2023-02-27T01:17:22.990Z,-1.46
2023-02-27T01:20:24.646Z,-1.46
2023-02-27T01:23:31.561Z,-1.46
2023-02-27T01:26:33.143Z,-1.45
2023-02-27T01:29:34.732Z,-1.46
2023-02-27T01:32:36.596Z,-1.47
2023-02-27T01:35:38.427Z,-1.48
2023-02-27T01:38:39.958Z,-1.48
2023-02-27T01:41:41.735Z,-1.48
2023-02-27T01:45:10.550Z,-1.49
2023-02-27T01:48:20.997Z,-1.50
2023-02-27T01:51:22.654Z,-1.51
2023-02-27T01:54:26.314Z,-1.52
2023-02-27T01:57:28.113Z,-1.54
2023-02-27T02:00:29.660Z,-1.55
2023-02-27T02:03:37.793Z,-1.55
2023-02-27T02:06:41.278Z,-1.55
2023-02-27T02:09:49.283Z,-1.57
2023-02-27T02:12:51.024Z,-1.60
2023-02-27T02:15:59.991Z,-1.61
2023-02-27T02:19:13.923Z,-1.62
2023-02-27T02:22:27.506Z,-1.62
2023-02-27T02:25:58.498Z,-1.63
2023-02-27T02:29:25.068Z,-1.63
2023-02-27T02:32:43.846Z,-1.62
2023-02-27T02:36:11.976Z,-1.62
2023-02-27T02:39:28.935Z,-1.60
2023-02-27T02:42:37.884Z,-1.58
2023-02-27T02:45:51.391Z,-1.57
2023-02-27T02:48:59.820Z,-1.55
2023-02-27T02:52:06.954Z,-1.53
2023-02-27T02:55:13.969Z,-1.52
2023-02-27T02:58:15.580Z,-1.52
2023-02-27T03:01:21.562Z,-1.52
2023-02-27T03:04:29.279Z,-1.51
2023-02-27T03:07:49.389Z,-1.51
2023-02-27T03:10:55.545Z,-1.52
2023-02-27T03:14:03.774Z,-1.53
2023-02-27T03:17:15.366Z,-1.53
2023-02-27T03:20:24.839Z,-1.54
2023-02-27T03:23:34.028Z,-1.54
2023-02-27T03:26:40.026Z,-1.54
2023-02-27T03:29:57.350Z,-1.54
2023-02-27T03:33:07.797Z,-1.55
2023-02-27T03:36:15.264Z,-1.55
2023-02-27T03:39:35.533Z,-1.55
2023-02-27T03:43:15.620Z,-1.57
2023-02-27T03:46:19.026Z,-1.58
2023-02-27T03:49:20.962Z,-1.59
2023-02-27T03:52:24.496Z,-1.58
2023-02-27T03:55:33.331Z,-1.59
2023-02-27T03:58:35.682Z,-1.60
2023-02-27T04:01:37.588Z,-1.61
2023-02-27T04:04:39.287Z,-1.62
2023-02-27T04:07:45.258Z,-1.62
2023-02-27T04:10:52.978Z,-1.62
2023-02-27T04:14:23.630Z,-1.64
2023-02-27T04:17:27.944Z,-1.64
2023-02-27T04:20:29.660Z,-1.66
2023-02-27T04:23:54.536Z,-1.68
2023-02-27T04:27:07.049Z,-1.69
2023-02-27T04:30:33.895Z,-1.70
2023-02-27T04:33:47.506Z,-1.70
2023-02-27T04:36:58.304Z,-1.70
2023-02-27T04:40:02.980Z,-1.72
2023-02-27T04:43:06.520Z,-1.72
2023-02-27T04:46:11.693Z,-1.73
2023-02-27T04:49:18.685Z,-1.73
2023-02-27T04:52:39.084Z,-1.73
2023-02-27T04:55:48.289Z,-1.73
2023-02-27T04:58:53.627Z,-1.73
2023-02-27T05:02:09.209Z,-1.73
2023-02-27T05:05:14.836Z,-1.77
2023-02-27T05:08:34.621Z,-1.95
2023-02-27T05:12:06.192Z,-2.22
2023-02-27T05:15:18.303Z,-2.38
2023-02-27T05:18:21.920Z,-2.58
2023-02-27T05:21:28.330Z,-2.68
2023-02-27T05:24:50.655Z,-2.70
2023-02-27T05:28:23.411Z,-2.78
2023-02-27T05:31:35.503Z,-2.83
2023-02-27T05:34:44.960Z,-2.81
2023-02-27T05:37:59.298Z,-2.80
2023-02-27T05:41:05.122Z,-2.76
2023-02-27T05:44:11.574Z,-2.74
2023-02-27T05:47:19.040Z,-2.70
2023-02-27T05:50:23.971Z,-2.61
2023-02-27T05:53:30.481Z,-2.55
2023-02-27T05:56:33.662Z,-2.51
2023-02-27T06:00:07.985Z,-2.48
2023-02-27T06:03:10.025Z,-2.43
2023-02-27T06:06:15.427Z,-2.38
2023-02-27T06:09:16.936Z,-2.33
2023-02-27T06:12:18.665Z,-2.29
2023-02-27T06:15:20.177Z,-2.22
2023-02-27T06:18:21.730Z,-2.13
2023-02-27T06:21:23.297Z,-2.07
2023-02-27T06:24:24.878Z,-2.01
2023-02-27T06:27:26.454Z,-1.96
2023-02-27T06:30:28.280Z,-1.92
2023-02-27T06:33:29.982Z,-1.85
2023-02-27T06:36:31.589Z,-1.71
2023-02-27T06:39:33.142Z,-1.59
2023-02-27T06:42:34.780Z,-1.48
2023-02-27T06:45:36.550Z,-1.39
2023-02-27T06:48:38.293Z,-1.28
2023-02-27T06:51:39.831Z,-1.19
2023-02-27T06:54:41.391Z,-1.13
2023-02-27T06:57:42.928Z,-1.06
2023-02-27T07:00:44.627Z,-0.98
2023-02-27T07:03:46.239Z,-0.90
2023-02-27T07:07:35.268Z,-0.83
2023-02-27T07:10:13.920Z,-0.77
2023-02-27T07:13:19.405Z,-0.74
2023-02-27T07:16:21.248Z,-0.68
2023-02-27T07:19:24.048Z,-0.63
2023-02-27T07:22:25.864Z,-0.57
2023-02-27T07:25:27.434Z,-0.53
2023-02-27T07:28:29.298Z,-0.54
2023-02-27T07:31:31.383Z,-0.46
2023-02-27T07:34:33.024Z,-0.37
2023-02-27T07:37:35.048Z,-0.26
2023-02-27T07:40:36.590Z,-0.16
2023-02-27T07:43:38.215Z,-0.03
2023-02-27T07:46:39.814Z,0.13
2023-02-27T07:49:41.349Z,0.32
2023-02-27T07:52:44.376Z,0.52
2023-02-27T07:55:46.249Z,0.72
2023-02-27T07:58:48.158Z,0.89
2023-02-27T08:01:49.807Z,1.03
2023-02-27T08:04:51.489Z,1.12
2023-02-27T08:07:53.192Z,1.19
2023-02-27T08:10:55.059Z,1.22
2023-02-27T08:14:00.513Z,1.16
2023-02-27T08:17:02.933Z,1.13
2023-02-27T08:20:05.621Z,1.19
2023-02-27T08:23:07.328Z,1.12
2023-02-27T08:26:09.165Z,1.17
2023-02-27T08:29:10.878Z,1.25
2023-02-27T08:32:12.748Z,1.27
2023-02-27T08:35:14.417Z,1.41
2023-02-27T08:38:15.972Z,1.56
2023-02-27T08:41:17.739Z,1.72
2023-02-27T08:44:20.424Z,1.93
2023-02-27T08:47:22.301Z,2.09
2023-02-27T08:50:24.038Z,2.24
2023-02-27T08:53:26.103Z,2.14
2023-02-27T08:56:29.016Z,2.22
2023-02-27T08:59:31.904Z,2.42
2023-02-27T09:02:33.712Z,2.57
2023-02-27T09:05:35.510Z,2.67
2023-02-27T09:08:37.155Z,2.80
2023-02-27T09:11:38.973Z,2.87
2023-02-27T09:14:40.637Z,2.93
2023-02-27T09:17:42.583Z,3.02
2023-02-27T09:20:44.563Z,3.10
2023-02-27T09:23:46.192Z,3.17
2023-02-27T09:26:48.528Z,3.24
2023-02-27T09:29:50.496Z,3.26
2023-02-27T09:32:52.039Z,3.25
2023-02-27T09:35:53.651Z,3.25
2023-02-27T09:38:55.139Z,3.18
2023-02-27T09:42:03.591Z,3.08
2023-02-27T09:45:07.370Z,2.89
2023-02-27T09:48:26.922Z,2.70
2023-02-27T09:51:29.121Z,2.56
2023-02-27T09:54:33.296Z,2.49
2023-02-27T09:57:41.897Z,2.47
2023-02-27T10:00:53.499Z,2.43
2023-02-27T10:04:03.371Z,2.34
2023-02-27T10:07:30.556Z,2.24
2023-02-27T10:10:37.634Z,2.12
2023-02-27T10:13:57.692Z,2.04
2023-02-27T10:17:03.391Z,1.92
2023-02-27T10:20:09.365Z,1.84
2023-02-27T10:23:18.447Z,1.84
2023-02-27T10:26:28.591Z,1.83
2023-02-27T10:29:35.937Z,1.87
2023-02-27T10:32:38.536Z,1.96
2023-02-27T10:35:41.329Z,1.94
2023-02-27T10:38:55.809Z,1.92
2023-02-27T10:42:05.918Z,1.82
2023-02-27T10:45:12.790Z,1.69
2023-02-27T10:48:14.671Z,1.58
2023-02-27T10:51:29.486Z,1.55
2023-02-27T10:54:31.640Z,1.55
2023-02-27T10:57:43.176Z,1.59
2023-02-27T11:00:59.584Z,1.71
2023-02-27T11:04:01.261Z,1.87
2023-02-27T11:07:09.285Z,2.03
2023-02-27T11:10:10.892Z,2.07
2023-02-27T11:13:19.032Z,2.16
2023-02-27T11:16:20.860Z,2.22
2023-02-27T11:19:31.807Z,2.32
2023-02-27T11:22:33.644Z,2.40
2023-02-27T11:25:35.335Z,2.62
2023-02-27T11:28:37.087Z,3.19
2023-02-27T11:31:38.867Z,3.60
2023-02-27T11:34:47.507Z,3.74
2023-02-27T11:37:50.556Z,3.78
2023-02-27T11:40:56.492Z,3.79
2023-02-27T11:43:59.036Z,3.84
2023-02-27T11:47:21.523Z,3.86
2023-02-27T11:50:41.414Z,3.76
2023-02-27T11:54:02.989Z,3.46
2023-02-27T11:57:25.383Z,3.12
2023-02-27T12:00:35.316Z,2.86
2023-02-27T12:03:48.924Z,2.65
2023-02-27T12:06:55.741Z,2.45
2023-02-27T12:10:06.837Z,2.28
2023-02-27T12:13:15.557Z,2.08
2023-02-27T12:16:36.580Z,1.86
2023-02-27T12:19:42.377Z,1.69
2023-02-27T12:22:46.281Z,1.58
2023-02-27T12:25:54.486Z,1.45
2023-02-27T12:29:09.518Z,1.35
2023-02-27T12:32:31.999Z,1.24
2023-02-27T12:35:33.612Z,1.09
2023-02-27T12:38:38.114Z,1.01
2023-02-27T12:41:51.766Z,0.89
2023-02-27T12:45:21.665Z,0.77
2023-02-27T12:48:47.604Z,0.74
2023-02-27T12:52:14.487Z,0.70
2023-02-27T12:55:23.890Z,0.72
2023-02-27T12:58:36.092Z,0.76
2023-02-27T13:01:48.230Z,0.81
2023-02-27T13:05:17.644Z,0.85
2023-02-27T13:08:42.799Z,0.92
2023-02-27T13:11:50.358Z,0.99
2023-02-27T13:15:00.115Z,1.02
2023-02-27T13:18:06.773Z,1.04
2023-02-27T13:21:15.266Z,1.07
2023-02-27T13:24:31.838Z,1.13
2023-02-27T13:27:42.332Z,1.17
2023-02-27T13:30:52.562Z,1.22
2023-02-27T13:34:03.492Z,1.29
2023-02-27T13:37:07.067Z,1.32
2023-02-27T13:40:28.484Z,1.35
2023-02-27T13:43:50.067Z,1.35
2023-02-27T13:46:53.464Z,1.26
2023-02-27T13:49:55.442Z,1.23
2023-02-27T13:52:57.053Z,1.20
2023-02-27T13:56:18.952Z,1.18
2023-02-27T13:59:28.356Z,1.12
2023-02-27T14:02:56.482Z,1.14
2023-02-27T14:06:03.111Z,1.13
2023-02-27T14:09:15.070Z,1.08
2023-02-27T14:12:46.993Z,1.08
2023-02-27T14:15:52.474Z,1.07
2023-02-27T14:18:57.905Z,1.09
2023-02-27T14:22:00.837Z,1.09
2023-02-27T14:25:19.179Z,1.04
2023-02-27T14:28:30.924Z,1.00
2023-02-27T14:31:35.258Z,0.98
2023-02-27T14:34:38.308Z,0.96
2023-02-27T14:37:40.813Z,0.92
2023-02-27T14:41:00.909Z,0.90
2023-02-27T14:44:03.047Z,0.90
2023-02-27T14:47:05.813Z,0.88
2023-02-27T14:50:22.320Z,0.87
2023-02-27T14:53:26.845Z,0.89
2023-02-27T14:56:28.744Z,0.90
2023-02-27T14:59:33.349Z,0.87
2023-02-27T15:02:35.897Z,0.85
2023-02-27T15:05:38.318Z,0.84
2023-02-27T15:08:41.807Z,0.79
2023-02-27T15:11:51.312Z,0.72
2023-02-27T15:15:01.040Z,0.63
2023-02-27T15:18:02.692Z,0.51
2023-02-27T15:21:04.360Z,0.41
2023-02-27T15:24:07.423Z,0.32
2023-02-27T15:27:12.349Z,0.25
2023-02-27T15:30:21.098Z,0.19
2023-02-27T15:33:31.329Z,0.12
2023-02-27T15:36:34.928Z,0.08
2023-02-27T15:39:36.821Z,0.02
2023-02-27T15:42:38.615Z,-0.02
2023-02-27T15:45:40.133Z,-0.05
2023-02-27T15:48:41.802Z,-0.12
2023-02-27T15:51:44.143Z,-0.17
2023-02-27T15:54:54.469Z,-0.21
2023-02-27T15:58:02.702Z,-0.25
2023-02-27T16:01:09.066Z,-0.26
2023-02-27T16:04:24.489Z,-0.29
2023-02-27T16:07:26.602Z,-0.31
2023-02-27T16:10:30.879Z,-0.33
2023-02-27T16:13:37.410Z,-0.37
2023-02-27T16:16:39.322Z,-0.40
2023-02-27T16:19:41.020Z,-0.44
2023-02-27T16:23:04.460Z,-0.48
2023-02-27T16:26:08.881Z,-0.52
2023-02-27T16:29:19.851Z,-0.55
2023-02-27T16:32:30.414Z,-0.58
2023-02-27T16:35:32.317Z,-0.67
2023-02-27T16:38:33.860Z,-0.90
2023-02-27T16:41:35.493Z,-1.20
2023-02-27T16:44:37.160Z,-1.40
2023-02-27T16:47:38.967Z,-1.55
2023-02-27T16:50:42.488Z,-1.69
2023-02-27T16:53:46.744Z,-1.79
2023-02-27T16:56:49.863Z,-1.84
2023-02-27T16:59:51.515Z,-1.85
2023-02-27T17:02:53.439Z,-1.85
2023-02-27T17:05:54.993Z,-1.87
2023-02-27T17:08:56.746Z,-1.87
2023-02-27T17:11:58.335Z,-1.87
2023-02-27T17:14:59.865Z,-1.86
2023-02-27T17:18:01.819Z,-1.82
2023-02-27T17:21:04.339Z,-1.75
2023-02-27T17:24:06.432Z,-1.72
2023-02-27T17:27:08.537Z,-1.68
2023-02-27T17:30:10.843Z,-1.65
2023-02-27T17:33:12.555Z,-1.66
2023-02-27T17:36:14.073Z,-1.66
2023-02-27T17:39:16.166Z,-1.66
2023-02-27T17:42:18.215Z,-1.66
2023-02-27T17:45:19.899Z,-1.67
2023-02-27T17:48:21.533Z,-1.67
2023-02-27T17:51:23.357Z,-1.66
2023-02-27T17:54:24.925Z,-1.66
2023-02-27T17:57:27.708Z,-1.65
2023-02-27T18:00:29.193Z,-1.66
2023-02-27T18:03:31.062Z,-1.66
2023-02-27T18:06:33.057Z,-1.66
2023-02-27T18:09:34.688Z,-1.65
2023-02-27T18:12:37.057Z,-1.64
2023-02-27T18:15:39.955Z,-1.63
2023-02-27T18:18:42.978Z,-1.62
2023-02-27T18:21:46.323Z,-1.63
2023-02-27T18:24:48.939Z,-1.60
2023-02-27T18:27:50.776Z,-1.60
2023-02-27T18:30:52.868Z,-1.59
2023-02-27T18:33:54.511Z,-1.57
2023-02-27T18:36:58.174Z,-1.59
2023-02-27T18:40:00.118Z,-1.62
2023-02-27T18:43:01.812Z,-1.61
2023-02-27T18:46:03.917Z,-1.63
2023-02-27T18:49:05.423Z,-1.65
2023-02-27T18:52:07.113Z,-1.64
2023-02-27T18:55:09.342Z,-1.65
2023-02-27T18:58:10.954Z,-1.68
2023-02-27T19:01:27.513Z,-1.67
2023-02-27T19:04:32.633Z,-1.68
2023-02-27T19:07:34.442Z,-1.71
2023-02-27T19:10:39.231Z,-1.72
2023-02-27T19:13:41.148Z,-1.67
2023-02-27T19:16:43.084Z,-1.67
2023-02-27T19:19:44.734Z,-1.71
2023-02-27T19:22:46.834Z,-1.73
2023-02-27T19:25:48.448Z,-1.76
2023-02-27T19:28:54.201Z,-1.76
2023-02-27T19:31:55.894Z,-1.78
2023-02-27T19:34:57.549Z,-1.81
2023-02-27T19:37:59.190Z,-1.82
2023-02-27T19:41:02.714Z,-1.84
2023-02-27T19:44:04.707Z,-1.86
2023-02-27T19:47:06.925Z,-1.88
2023-02-27T19:50:09.528Z,-1.88
2023-02-27T19:53:11.368Z,-1.89
2023-02-27T19:56:14.022Z,-1.89
2023-02-27T19:59:15.744Z,-1.89
2023-02-27T20:02:17.192Z,-1.89
2023-02-27T20:05:19.114Z,-1.80
2023-02-27T20:08:21.243Z,-1.81
2023-02-27T20:11:23.063Z,-1.92
2023-02-27T20:14:24.823Z,-2.00
2023-02-27T20:17:26.510Z,-2.05
2023-02-27T20:20:28.125Z,-2.08
2023-02-27T20:23:31.645Z,-2.10
2023-02-27T20:26:36.656Z,-2.09
2023-02-27T20:29:38.224Z,-2.10
2023-02-27T20:32:40.097Z,-2.09
2023-02-27T20:35:41.742Z,-2.10
2023-02-27T20:38:44.271Z,-2.14
2023-02-27T20:41:46.082Z,-2.16
2023-02-27T20:44:48.813Z,-2.17
2023-02-27T20:47:50.550Z,-2.19
2023-02-27T20:50:52.216Z,-2.20
2023-02-27T20:53:55.616Z,-2.21
2023-02-27T20:57:00.290Z,-2.24
2023-02-27T21:00:02.009Z,-2.23
2023-02-27T21:03:03.957Z,-2.23
2023-02-27T21:06:07.198Z,-2.24
2023-02-27T21:09:08.766Z,-2.22
2023-02-27T21:12:11.346Z,-2.21
2023-02-27T21:15:12.872Z,-2.22
2023-02-27T21:18:14.465Z,-2.24
2023-02-27T21:21:19.722Z,-2.27
2023-02-27T21:24:21.275Z,-2.28
2023-02-27T21:27:25.104Z,-2.28
2023-02-27T21:30:26.699Z,-2.29
2023-02-27T21:33:28.322Z,-2.25
2023-02-27T21:36:35.244Z,-2.12
2023-02-27T21:39:36.822Z,-2.03
2023-02-27T21:42:38.396Z,-1.95
2023-02-27T21:45:40.155Z,-1.89
2023-02-27T21:48:44.813Z,-1.83
2023-02-27T21:51:47.303Z,-1.77
2023-02-27T21:54:49.189Z,-1.71
2023-02-27T21:57:50.995Z,-1.67
2023-02-27T22:00:52.574Z,-1.63
2023-02-27T22:03:54.464Z,-1.62
2023-02-27T22:06:56.040Z,-1.61
2023-02-27T22:09:57.812Z,-1.59
2023-02-27T22:12:59.787Z,-1.58
2023-02-27T22:16:06.510Z,-1.57
2023-02-27T22:19:10.445Z,-1.56
2023-02-27T22:22:12.125Z,-1.55
2023-02-27T22:25:13.779Z,-1.54
2023-02-27T22:28:15.588Z,-1.52
2023-02-27T22:31:21.094Z,-1.53
2023-02-27T22:34:22.901Z,-1.52
2023-02-27T22:37:24.436Z,-1.51
2023-02-27T22:40:26.104Z,-1.51
2023-02-27T22:43:27.690Z,-1.52
2023-02-27T22:46:36.852Z,-1.52
2023-02-27T22:49:38.505Z,-1.52
2023-02-27T22:52:40.300Z,-1.52
2023-02-27T22:55:41.745Z,-1.52
2023-02-27T22:58:44.739Z,-1.53
2023-02-27T23:01:46.482Z,-1.55
2023-02-27T23:04:47.960Z,-1.55
2023-02-27T23:07:49.496Z,-1.56
2023-02-27T23:10:51.095Z,-1.57
2023-02-27T23:13:53.131Z,-1.59
2023-02-27T23:16:54.680Z,-1.59
2023-02-27T23:19:56.792Z,-1.61
2023-02-27T23:22:58.438Z,-1.63
2023-02-27T23:26:03.560Z,-1.64
2023-02-27T23:29:05.793Z,-1.66
2023-02-27T23:32:07.629Z,-1.69
2023-02-27T23:35:10.920Z,-1.70
2023-02-27T23:38:12.464Z,-1.72
2023-02-27T23:41:15.113Z,-1.74
2023-02-27T23:44:16.646Z,-1.75
2023-02-27T23:47:18.416Z,-1.78
2023-02-27T23:50:23.035Z,-1.81
2023-02-27T23:53:24.614Z,-1.84
2023-02-27T23:56:29.702Z,-1.87
2023-02-27T23:59:31.506Z,-1.89
